Time;durP1;ratioP1;P1;durP2;ratioP2;P2;SDS_P1;SDS_P2;PMS_P1;PMS_P2;Temp;Humidity;BMP_temperature;BMP_pressure;BME280_temperature;BME280_humidity;BME280_pressure;Samples;Min_cycle;Max_cycle;Signal;HPM_P1;HPM_P2
2023/08/28 00:00:43;;;;;;;4.20;3.80;;;17.90;1.00;;;;;;5039782;28;20458;-76
2023/08/28 00:03:11;;;;;;;3.50;3.20;;;17.90;1.00;;;;;;5041270;28;20556;-74
2023/08/28 00:05:38;;;;;;;3.67;3.40;;;17.80;1.00;;;;;;5037978;28;20468;-74
2023/08/28 00:08:07;;;;;;;3.63;3.10;;;17.70;1.00;;;;;;5035898;28;20462;-74
2023/08/28 00:10:33;;;;;;;4.60;2.10;;;17.70;1.00;;;;;;5034306;28;20971;-74
2023/08/28 00:13:02;;;;;;;2.77;2.53;;;17.60;1.00;;;;;;5040484;28;20574;-73
2023/08/28 00:15:29;;;;;;;2.43;2.07;;;17.50;1.00;;;;;;5038378;28;20462;-74
2023/08/28 00:17:56;;;;;;;2.00;1.90;;;17.50;1.00;;;;;;5036189;28;21011;-73
2023/08/28 00:20:23;;;;;;;3.03;1.90;;;17.50;1.00;;;;;;5034018;28;20951;-74
2023/08/28 00:22:50;;;;;;;4.90;2.13;;;17.40;1.00;;;;;;5038658;28;21059;-72
2023/08/28 00:25:18;;;;;;;1.83;1.73;;;17.40;1.00;;;;;;5038627;28;20985;-73
2023/08/28 00:27:46;;;;;;;1.97;1.40;;;17.40;1.00;;;;;;5039553;28;20473;-73
2023/08/28 00:30:13;;;;;;;1.70;1.60;;;17.30;1.00;;;;;;5037054;28;20452;-73
2023/08/28 00:32:40;;;;;;;1.60;1.50;;;17.20;1.00;;;;;;5039905;28;20511;-73
2023/08/28 00:35:08;;;;;;;2.70;1.87;;;17.20;1.00;;;;;;5038622;28;20535;-73
2023/08/28 00:37:35;;;;;;;1.50;1.40;;;17.10;1.00;;;;;;5035546;28;20472;-73
2023/08/28 00:40:03;;;;;;;2.07;1.87;;;17.10;1.00;;;;;;5036234;28;20559;-73
2023/08/28 00:42:31;;;;;;;1.97;1.77;;;17.10;1.00;;;;;;5039103;28;20550;-74
2023/08/28 00:44:58;;;;;;;1.60;1.50;;;17.00;1.00;;;;;;5035531;28;20548;-73
2023/08/28 00:47:25;;;;;;;2.03;1.80;;;17.00;1.00;;;;;;5037855;28;21015;-73
2023/08/28 00:49:53;;;;;;;2.27;2.07;;;16.90;1.00;;;;;;5035991;28;20475;-73
2023/08/28 00:52:20;;;;;;;1.90;1.80;;;16.80;1.00;;;;;;5038956;28;20512;-73
2023/08/28 00:54:47;;;;;;;3.00;1.80;;;16.80;1.00;;;;;;5035588;28;21035;-73
2023/08/28 00:57:18;;;;;;;1.87;1.77;;;16.70;1.00;;;;;;5037642;28;20464;-73
2023/08/28 00:59:46;;;;;;;2.00;1.80;;;16.70;1.00;;;;;;5033697;28;20462;-73
2023/08/28 01:02:13;;;;;;;3.53;2.00;;;16.50;1.00;;;;;;5032321;28;21054;-70
2023/08/28 01:04:40;;;;;;;1.63;1.53;;;16.50;1.00;;;;;;5036708;28;20488;-72
2023/08/28 01:07:18;;;;;;;2.10;1.90;;;16.40;1.00;;;;;;5037609;28;20445;-71
2023/08/28 01:10:00;;;;;;;2.30;2.00;;;16.30;1.00;;;;;;5037423;28;20498;-72
2023/08/28 01:12:38;;;;;;;1.97;1.70;;;16.30;1.00;;;;;;5033204;28;20931;-71
2023/08/28 01:15:12;;;;;;;1.70;1.60;;;16.30;1.00;;;;;;5037751;28;21080;-74
2023/08/28 01:17:40;;;;;;;1.93;1.70;;;16.20;1.00;;;;;;5037482;28;20933;-71
2023/08/28 01:20:12;;;;;;;2.10;1.80;;;16.20;1.00;;;;;;5039888;28;20546;-70
2023/08/28 01:22:45;;;;;;;1.70;1.60;;;16.10;1.00;;;;;;5035998;28;20503;-74
2023/08/28 01:25:14;;;;;;;2.17;1.97;;;16.10;1.00;;;;;;5040259;28;22051;-72
2023/08/28 01:27:42;;;;;;;1.87;1.77;;;16.10;1.00;;;;;;5039263;28;20681;-71
2023/08/28 01:30:11;;;;;;;2.00;1.80;;;16.00;1.00;;;;;;5035266;28;21008;-71
2023/08/28 01:32:39;;;;;;;1.97;1.47;;;16.00;1.00;;;;;;5039775;28;20486;-71
2023/08/28 01:35:09;;;;;;;2.20;2.00;;;16.00;1.00;;;;;;5037408;28;20986;-71
2023/08/28 01:37:50;;;;;;;1.87;1.77;;;15.90;1.00;;;;;;5041064;28;20455;-71
2023/08/28 01:40:21;;;;;;;1.73;1.63;;;15.90;1.00;;;;;;5039265;28;21430;-73
2023/08/28 01:42:49;;;;;;;2.60;2.40;;;15.90;1.00;;;;;;5037289;28;20950;-70
2023/08/28 01:45:18;;;;;;;2.13;1.93;;;15.80;1.00;;;;;;5043174;28;20460;-72
2023/08/28 01:47:45;;;;;;;2.00;1.80;;;15.80;1.00;;;;;;5040286;28;20572;-74
2023/08/28 01:50:12;;;;;;;2.13;1.83;;;15.80;1.00;;;;;;5038415;28;20486;-75
2023/08/28 01:52:39;;;;;;;2.17;1.97;;;15.80;1.00;;;;;;5043747;28;20565;-71
2023/08/28 01:55:07;;;;;;;1.90;1.80;;;15.80;1.00;;;;;;5039436;28;21070;-71
2023/08/28 01:57:35;;;;;;;1.93;1.70;;;15.80;1.00;;;;;;5038046;28;20486;-73
2023/08/28 02:00:02;;;;;;;2.00;1.80;;;15.70;1.00;;;;;;5040456;28;20524;-73
2023/08/28 02:02:29;;;;;;;2.30;2.10;;;15.70;1.00;;;;;;5035847;28;20464;-73
2023/08/28 02:04:56;;;;;;;2.20;2.10;;;15.70;1.00;;;;;;5039679;28;20548;-72
2023/08/28 02:07:23;;;;;;;2.50;2.30;;;15.70;1.00;;;;;;5039508;28;20542;-70
2023/08/28 02:09:50;;;;;;;1.97;1.87;;;15.60;1.00;;;;;;5037750;28;20599;-70
2023/08/28 02:12:17;;;;;;;1.97;1.80;;;15.60;1.00;;;;;;5040972;28;20998;-74
2023/08/28 02:14:45;;;;;;;1.90;1.70;;;15.60;1.00;;;;;;5038160;28;20510;-71
2023/08/28 02:17:12;;;;;;;2.37;2.17;;;15.50;1.00;;;;;;5037202;28;20476;-71
2023/08/28 02:19:39;;;;;;;2.10;2.00;;;15.50;1.00;;;;;;5038050;28;20468;-71
2023/08/28 02:22:06;;;;;;;2.40;2.20;;;15.50;1.00;;;;;;5039860;28;20480;-70
2023/08/28 02:24:33;;;;;;;2.33;2.13;;;15.50;1.00;;;;;;5037660;28;20542;-73
2023/08/28 02:27:00;;;;;;;1.90;1.80;;;15.50;1.00;;;;;;5039457;28;20456;-74
2023/08/28 02:29:27;;;;;;;2.90;2.37;;;15.50;1.00;;;;;;5038995;28;20483;-70
2023/08/28 02:31:55;;;;;;;2.43;2.23;;;15.50;1.00;;;;;;5036952;28;20479;-71
2023/08/28 02:34:22;;;;;;;2.23;2.10;;;15.50;1.00;;;;;;5042140;28;20895;-71
2023/08/28 02:36:49;;;;;;;2.30;2.10;;;15.50;1.00;;;;;;5033649;28;20966;-73
2023/08/28 02:39:16;;;;;;;2.50;2.30;;;15.40;1.00;;;;;;5038158;28;20937;-74
2023/08/28 02:41:42;;;;;;;2.70;2.33;;;15.40;1.00;;;;;;5040889;28;20471;-71
2023/08/28 02:44:09;;;;;;;2.90;2.33;;;15.40;1.00;;;;;;5041757;28;20495;-71
2023/08/28 02:46:37;;;;;;;2.43;2.23;;;15.30;1.00;;;;;;5037229;28;20566;-70
2023/08/28 02:49:05;;;;;;;3.00;2.10;;;15.30;1.00;;;;;;5035165;28;20688;-70
2023/08/28 02:51:35;;;;;;;3.43;2.30;;;15.30;1.00;;;;;;5035776;28;20562;-71
2023/08/28 02:54:03;;;;;;;2.90;2.70;;;15.30;1.00;;;;;;5038551;28;20468;-71
2023/08/28 02:56:38;;;;;;;18.00;15.07;;;15.30;1.00;;;;;;5037408;28;20463;-72
2023/08/28 02:59:05;;;;;;;2.57;2.37;;;15.30;1.00;;;;;;5034795;28;20556;-72
2023/08/28 03:01:34;;;;;;;2.67;2.00;;;15.30;1.00;;;;;;5039063;28;21434;-71
2023/08/28 03:04:02;;;;;;;3.80;2.70;;;15.30;1.00;;;;;;5038108;28;20574;-70
2023/08/28 03:06:31;;;;;;;2.63;2.43;;;15.30;1.00;;;;;;5038219;28;20475;-73
2023/08/28 03:08:58;;;;;;;4.23;2.77;;;15.20;1.00;;;;;;5040195;28;20492;-71
2023/08/28 03:11:24;;;;;;;3.17;2.63;;;15.20;1.00;;;;;;5036604;28;20563;-71
2023/08/28 03:13:51;;;;;;;2.73;2.20;;;15.20;1.00;;;;;;5040564;28;20487;-71
2023/08/28 03:16:18;;;;;;;2.80;2.60;;;15.20;1.00;;;;;;5036506;28;20555;-71
2023/08/28 03:18:45;;;;;;;4.33;2.20;;;15.20;1.00;;;;;;5038716;28;20543;-71
2023/08/28 03:21:12;;;;;;;2.23;2.13;;;15.10;1.00;;;;;;5040617;28;20468;-70
2023/08/28 03:23:40;;;;;;;3.50;3.20;;;15.10;1.00;;;;;;5042756;28;21022;-72
2023/08/28 03:26:07;;;;;;;4.07;2.40;;;15.00;1.00;;;;;;5038932;28;20458;-72
2023/08/28 03:28:34;;;;;;;3.10;2.37;;;15.00;1.00;;;;;;5038967;28;20550;-72
2023/08/28 03:31:02;;;;;;;4.30;3.30;;;15.00;1.00;;;;;;5037587;28;20587;-71
2023/08/28 03:33:29;;;;;;;4.50;2.70;;;15.00;1.00;;;;;;5039812;28;20539;-74
2023/08/28 03:35:56;;;;;;;3.07;2.87;;;15.00;1.00;;;;;;5039042;28;20467;-71
2023/08/28 03:38:23;;;;;;;3.90;3.60;;;14.90;1.00;;;;;;5037829;28;20498;-74
2023/08/28 03:40:52;;;;;;;4.80;3.10;;;14.90;1.00;;;;;;5038761;28;20463;-72
2023/08/28 03:43:19;;;;;;;3.50;3.20;;;15.00;1.00;;;;;;5039570;28;20455;-72
2023/08/28 03:45:46;;;;;;;3.47;3.17;;;15.00;1.00;;;;;;5035072;28;21160;-73
2023/08/28 03:48:13;;;;;;;4.13;2.93;;;14.90;1.00;;;;;;5037566;28;20927;-71
2023/08/28 03:50:40;;;;;;;3.33;3.03;;;14.90;1.00;;;;;;5036316;28;20475;-72
2023/08/28 03:53:08;;;;;;;4.07;3.50;;;14.90;1.00;;;;;;5036238;28;20461;-71
2023/08/28 03:55:35;;;;;;;5.10;3.37;;;15.00;1.00;;;;;;5039845;28;20476;-72
2023/08/28 03:58:04;;;;;;;4.20;3.80;;;15.00;1.00;;;;;;5035737;28;20905;-71
2023/08/28 04:00:32;;;;;;;4.67;3.90;;;15.00;1.00;;;;;;5035983;28;20664;-72
2023/08/28 04:02:59;;;;;;;3.40;3.10;;;15.00;1.00;;;;;;5034308;28;20474;-74
2023/08/28 04:05:26;;;;;;;5.33;4.40;;;15.00;1.00;;;;;;5029246;28;20473;-72
2023/08/28 04:07:54;;;;;;;3.80;3.50;;;15.10;1.00;;;;;;5035182;28;20456;-71
2023/08/28 04:10:21;;;;;;;8.30;7.60;;;15.00;1.00;;;;;;5032068;28;21160;-72
2023/08/28 04:12:48;;;;;;;4.70;4.20;;;15.00;1.00;;;;;;5035278;28;20466;-72
2023/08/28 04:15:17;;;;;;;5.03;4.20;;;15.00;1.00;;;;;;5038959;28;20619;-75
2023/08/28 04:17:47;;;;;;;6.90;4.70;;;15.00;1.00;;;;;;5032286;28;20553;-72
2023/08/28 04:20:16;;;;;;;5.03;4.60;;;15.00;1.00;;;;;;5021045;28;20493;-72
2023/08/28 04:22:46;;;;;;;4.67;4.37;;;15.10;1.00;;;;;;5042041;28;20971;-75
2023/08/28 04:25:14;;;;;;;3.70;3.40;;;15.10;1.00;;;;;;5037462;28;21119;-70
2023/08/28 04:27:42;;;;;;;5.43;4.60;;;15.10;1.00;;;;;;5038597;28;20594;-73
2023/08/28 04:30:11;;;;;;;7.20;4.70;;;15.10;1.00;;;;;;5036753;28;20608;-69
2023/08/28 04:32:40;;;;;;;6.00;4.23;;;15.10;1.00;;;;;;5039106;28;20463;-69
2023/08/28 04:35:08;;;;;;;4.17;3.90;;;15.10;1.00;;;;;;5036756;28;20476;-70
2023/08/28 04:37:35;;;;;;;4.77;4.13;;;15.20;1.00;;;;;;5035267;28;20454;-71
2023/08/28 04:40:03;;;;;;;4.60;4.20;;;15.20;1.00;;;;;;5036937;28;20580;-70
2023/08/28 04:42:30;;;;;;;4.60;4.20;;;15.20;1.00;;;;;;5040157;28;20471;-72
2023/08/28 04:44:57;;;;;;;5.37;4.87;;;15.20;1.00;;;;;;5034136;28;20506;-72
2023/08/28 04:47:24;;;;;;;4.50;4.10;;;15.20;1.00;;;;;;5036061;28;20463;-71
2023/08/28 04:49:52;;;;;;;4.47;4.17;;;15.30;1.00;;;;;;5035575;28;20483;-70
2023/08/28 04:52:20;;;;;;;5.80;4.87;;;15.20;1.00;;;;;;5034362;28;20472;-72
2023/08/28 04:54:48;;;;;;;4.50;4.10;;;15.20;1.00;;;;;;5035993;28;21002;-72
2023/08/28 04:57:15;;;;;;;5.03;4.63;;;15.20;1.00;;;;;;5038023;28;20479;-71
2023/08/28 04:59:42;;;;;;;5.70;5.13;;;15.20;1.00;;;;;;5038997;28;20554;-74
2023/08/28 05:02:09;;;;;;;4.63;4.23;;;15.20;1.00;;;;;;5032986;28;21129;-72
2023/08/28 05:04:41;;;;;;;11.37;10.43;;;15.30;1.00;;;;;;5026537;28;20477;-72
2023/08/28 05:07:11;;;;;;;7.00;6.30;;;15.30;1.00;;;;;;5046308;28;20522;-70
2023/08/28 05:09:38;;;;;;;4.50;4.10;;;15.30;1.00;;;;;;5045456;28;20484;-71
2023/08/28 05:12:05;;;;;;;4.50;4.10;;;15.40;1.00;;;;;;5039310;28;20554;-71
2023/08/28 05:14:32;;;;;;;5.20;4.70;;;15.40;1.00;;;;;;5039516;28;20502;-73
2023/08/28 05:16:59;;;;;;;5.53;5.03;;;15.40;1.00;;;;;;5042679;28;20507;-70
2023/08/28 05:19:26;;;;;;;4.90;4.50;;;15.40;1.00;;;;;;5039768;28;20533;-73
2023/08/28 05:21:53;;;;;;;5.27;4.30;;;15.30;1.00;;;;;;5039906;28;20563;-71
2023/08/28 05:24:21;;;;;;;4.93;4.43;;;15.20;1.00;;;;;;5041405;28;20550;-72
2023/08/28 05:26:48;;;;;;;5.23;4.73;;;15.10;1.00;;;;;;5046111;28;20529;-73
2023/08/28 05:29:15;;;;;;;4.60;4.30;;;15.10;1.00;;;;;;5034888;28;20467;-71
2023/08/28 05:31:42;;;;;;;5.57;4.57;;;14.90;1.00;;;;;;5038901;28;20459;-72
2023/08/28 05:34:09;;;;;;;4.50;4.07;;;14.90;1.00;;;;;;5037795;28;20467;-69
2023/08/28 05:36:36;;;;;;;5.83;4.80;;;14.80;1.00;;;;;;5044237;28;20466;-70
2023/08/28 05:39:03;;;;;;;5.20;4.70;;;14.90;1.00;;;;;;5045507;28;21119;-69
2023/08/28 05:41:32;;;;;;;4.40;4.03;;;15.00;1.00;;;;;;5040973;28;20473;-70
2023/08/28 05:43:59;;;;;;;4.43;4.03;;;15.00;1.00;;;;;;5042126;28;20462;-74
2023/08/28 05:46:25;;;;;;;5.27;4.87;;;15.00;1.00;;;;;;5038941;28;20851;-73
2023/08/28 05:48:52;;;;;;;5.80;5.00;;;15.10;1.00;;;;;;5033648;28;20480;-73
2023/08/28 05:51:19;;;;;;;5.80;4.97;;;15.10;1.00;;;;;;5034010;28;20958;-71
2023/08/28 05:53:47;;;;;;;5.87;4.90;;;15.10;1.00;;;;;;5040484;28;20464;-71
2023/08/28 05:56:14;;;;;;;4.60;4.30;;;15.20;1.00;;;;;;5036608;28;20475;-68
2023/08/28 05:58:43;;;;;;;5.40;5.00;;;15.10;1.00;;;;;;5042926;28;20929;-71
2023/08/28 06:01:10;;;;;;;4.87;4.53;;;15.00;1.00;;;;;;5035589;28;20541;-70
2023/08/28 06:03:37;;;;;;;6.43;4.63;;;15.00;1.00;;;;;;5048997;28;20498;-69
2023/08/28 06:06:04;;;;;;;5.70;5.30;;;15.10;1.00;;;;;;5036362;28;20495;-72
2023/08/28 06:08:31;;;;;;;5.87;5.00;;;15.10;1.00;;;;;;5036041;28;20475;-70
2023/08/28 06:10:58;;;;;;;5.47;4.97;;;15.20;1.00;;;;;;5036968;28;20542;-70
2023/08/28 06:13:25;;;;;;;5.60;5.00;;;15.30;1.00;;;;;;5039352;28;20487;-71
2023/08/28 06:15:53;;;;;;;7.43;5.40;;;15.30;1.00;;;;;;5038743;28;20549;-74
2023/08/28 06:18:20;;;;;;;5.23;4.83;;;15.30;1.00;;;;;;5043438;28;20913;-72
2023/08/28 06:20:47;;;;;;;5.00;4.60;;;15.40;1.00;;;;;;5043129;28;20540;-71
2023/08/28 06:23:16;;;;;;;5.40;4.90;;;15.40;1.00;;;;;;5041228;28;20599;-70
2023/08/28 06:25:43;;;;;;;7.03;4.93;;;15.30;1.00;;;;;;5041235;28;21180;-69
2023/08/28 06:28:10;;;;;;;4.90;4.43;;;15.50;1.00;;;;;;5038709;28;20542;-71
2023/08/28 06:30:37;;;;;;;5.47;4.97;;;15.50;1.00;;;;;;5037749;28;20997;-70
2023/08/28 06:33:05;;;;;;;7.17;4.37;;;15.50;1.00;;;;;;5043315;28;20571;-70
2023/08/28 06:35:32;;;;;;;5.17;4.63;;;15.50;1.00;;;;;;5041520;28;20947;-70
2023/08/28 06:37:59;;;;;;;5.03;4.63;;;15.60;1.00;;;;;;5043871;28;20910;-70
2023/08/28 06:40:26;;;;;;;4.83;4.43;;;15.70;1.00;;;;;;5040730;28;20553;-69
2023/08/28 06:42:53;;;;;;;4.90;4.50;;;15.80;1.00;;;;;;5035133;28;20586;-68
2023/08/28 06:45:20;;;;;;;5.30;4.80;;;16.00;1.00;;;;;;5033774;28;20613;-67
2023/08/28 06:47:47;;;;;;;5.83;4.93;;;16.10;1.00;;;;;;5035046;28;20503;-68
2023/08/28 06:50:16;;;;;;;5.93;4.17;;;16.20;1.00;;;;;;5036413;28;20483;-71
2023/08/28 06:52:42;;;;;;;4.77;4.27;;;16.20;1.00;;;;;;5031713;28;20468;-71
2023/08/28 06:55:10;;;;;;;5.30;4.40;;;16.30;1.00;;;;;;5035458;28;20460;-68
2023/08/28 06:57:38;;;;;;;5.20;4.70;;;16.30;1.00;;;;;;5035200;28;21405;-68
2023/08/28 07:00:08;;;;;;;7.07;5.10;;;16.20;1.00;;;;;;5036957;28;20456;-72
2023/08/28 07:02:36;;;;;;;4.60;4.20;;;16.30;1.00;;;;;;5037411;28;20468;-70
2023/08/28 07:05:03;;;;;;;4.90;4.50;;;16.40;1.00;;;;;;5041735;28;20976;-69
2023/08/28 07:07:31;;;;;;;4.97;4.43;;;16.40;1.00;;;;;;5041357;28;20908;-68
2023/08/28 07:09:58;;;;;;;4.87;4.47;;;16.40;1.00;;;;;;5037484;28;20542;-71
2023/08/28 07:12:25;;;;;;;4.60;4.20;;;16.40;1.00;;;;;;5040244;28;20503;-69
2023/08/28 07:15:27;;;;;;;4.93;4.43;;;16.50;1.00;;;;;;5039241;28;21078;-69
2023/08/28 07:17:54;;;;;;;4.07;3.70;;;16.60;1.00;;;;;;5038787;28;20900;-70
2023/08/28 07:20:22;;;;;;;3.63;3.33;;;16.80;1.00;;;;;;5042930;28;20457;-70
2023/08/28 07:22:51;;;;;;;4.53;4.03;;;17.00;1.00;;;;;;5047692;28;20463;-70
2023/08/28 07:25:21;;;;;;;4.47;2.90;;;17.10;1.00;;;;;;5037286;28;20551;-71
2023/08/28 07:27:48;;;;;;;4.80;3.27;;;17.20;1.00;;;;;;5034519;28;20496;-70
2023/08/28 07:30:15;;;;;;;10.87;6.57;;;17.30;1.00;;;;;;5030019;28;21029;-70
2023/08/28 07:32:42;;;;;;;7.60;3.93;;;17.40;1.00;;;;;;5030617;28;20464;-70
2023/08/28 07:35:09;;;;;;;4.37;3.67;;;17.60;1.00;;;;;;5031069;28;20612;-72
2023/08/28 07:37:38;;;;;;;2.97;2.70;;;17.80;1.00;;;;;;5032271;28;20473;-74
2023/08/28 07:40:08;;;;;;;3.20;2.80;;;17.90;1.00;;;;;;5038013;28;20456;-72
2023/08/28 07:42:36;;;;;;;3.80;2.70;;;18.00;1.00;;;;;;5030128;28;20550;-70
2023/08/28 07:45:03;;;;;;;3.00;2.60;;;18.00;1.00;;;;;;5030067;28;20857;-71
2023/08/28 07:47:30;;;;;;;5.17;2.60;;;18.10;1.00;;;;;;5038723;28;20475;-70
2023/08/28 07:49:57;;;;;;;7.90;3.50;;;18.10;1.00;;;;;;5038060;28;20485;-71
2023/08/28 07:52:25;;;;;;;3.17;2.67;;;18.10;1.00;;;;;;5046557;28;20464;-68
2023/08/28 07:54:52;;;;;;;5.23;2.80;;;18.30;1.00;;;;;;5040615;28;20532;-72
2023/08/28 07:57:23;;;;;;;2.57;2.37;;;18.40;1.00;;;;;;5040905;28;20976;-75
2023/08/28 07:59:50;;;;;;;3.80;2.57;;;18.50;1.00;;;;;;5033838;28;20465;-69
2023/08/28 08:02:16;;;;;;;5.30;2.90;;;18.50;1.00;;;;;;5035107;28;22860;-69
2023/08/28 08:04:43;;;;;;;3.03;2.37;;;18.50;1.00;;;;;;5032802;28;20453;-70
2023/08/28 08:07:10;;;;;;;2.43;1.77;;;18.50;1.00;;;;;;5034255;28;20478;-69
2023/08/28 08:09:37;;;;;;;2.10;1.90;;;18.60;1.00;;;;;;5038213;28;20838;-72
2023/08/28 08:12:04;;;;;;;2.73;2.00;;;18.60;1.00;;;;;;5041176;28;20461;-69
2023/08/28 08:14:33;;;;;;;3.90;2.17;;;18.70;1.00;;;;;;5036636;28;20483;-70
2023/08/28 08:17:00;;;;;;;5.30;2.20;;;18.80;1.00;;;;;;5039066;28;20576;-73
2023/08/28 08:19:27;;;;;;;3.60;2.03;;;19.10;1.00;;;;;;5034538;28;20459;-70
2023/08/28 08:21:53;;;;;;;5.67;3.80;;;19.10;1.00;;;;;;5037791;28;20551;-70
2023/08/28 08:24:20;;;;;;;3.23;1.87;;;19.10;1.00;;;;;;5032117;28;20469;-70
2023/08/28 08:26:47;;;;;;;3.83;2.10;;;19.20;1.00;;;;;;5038682;28;20494;-69
2023/08/28 08:29:14;;;;;;;5.30;2.53;;;19.30;1.00;;;;;;5036530;28;20466;-69
2023/08/28 08:31:42;;;;;;;4.80;2.10;;;19.50;1.00;;;;;;5037748;28;20466;-70
2023/08/28 08:34:09;;;;;;;4.60;1.97;;;19.50;1.00;;;;;;5044383;28;20461;-69
2023/08/28 08:36:36;;;;;;;2.33;1.53;;;19.50;1.00;;;;;;5042321;28;21031;-70
2023/08/28 08:39:03;;;;;;;3.93;2.50;;;19.40;1.00;;;;;;5035918;28;20524;-70
2023/08/28 08:41:30;;;;;;;1.83;1.50;;;19.50;1.00;;;;;;5042058;28;20983;-71
2023/08/28 08:43:57;;;;;;;2.13;1.93;;;19.50;1.00;;;;;;5037159;28;21267;-68
2023/08/28 08:46:25;;;;;;;1.70;1.53;;;19.60;1.00;;;;;;5048173;28;20505;-72
2023/08/28 08:48:57;;;;;;;3.30;1.80;;;19.60;1.00;;;;;;5041503;28;20469;-69
2023/08/28 08:51:26;;;;;;;5.13;4.00;;;19.80;1.00;;;;;;5041044;28;20966;-71
2023/08/28 08:53:59;;;;;;;2.70;2.03;;;20.10;1.00;;;;;;5037214;28;20552;-66
2023/08/28 08:56:31;;;;;;;4.10;2.30;;;20.40;1.00;;;;;;5044034;28;20784;-69
2023/08/28 08:58:59;;;;;;;2.10;1.70;;;20.60;1.00;;;;;;5042847;28;20565;-69
2023/08/28 09:01:27;;;;;;;2.20;2.10;;;20.80;1.00;;;;;;5047729;28;20924;-68
2023/08/28 09:03:57;;;;;;;2.20;1.70;;;20.90;1.00;;;;;;5040876;28;20553;-68
2023/08/28 09:06:25;;;;;;;6.00;1.70;;;21.00;1.00;;;;;;5041923;28;21996;-70
2023/08/28 09:08:52;;;;;;;2.40;1.43;;;20.90;1.00;;;;;;5040164;28;20463;-69
2023/08/28 09:11:19;;;;;;;2.03;1.80;;;20.90;1.00;;;;;;5042983;28;20463;-71
2023/08/28 09:13:46;;;;;;;1.50;1.10;;;21.00;1.00;;;;;;5041600;28;21025;-69
2023/08/28 09:16:13;;;;;;;3.17;2.63;;;21.00;1.00;;;;;;5040166;28;20985;-70
2023/08/28 09:18:40;;;;;;;1.50;1.40;;;21.00;1.00;;;;;;5043456;28;20461;-73
2023/08/28 09:21:10;;;;;;;5.07;2.70;;;20.90;1.00;;;;;;5046494;28;20447;-69
2023/08/28 09:23:42;;;;;;;4.30;1.70;;;20.80;1.00;;;;;;5042924;28;20460;-71
2023/08/28 09:26:11;;;;;;;3.93;1.60;;;20.80;1.00;;;;;;5041676;28;20468;-70
2023/08/28 09:28:38;;;;;;;3.37;3.07;;;20.80;1.00;;;;;;5043719;28;20554;-70
2023/08/28 09:31:05;;;;;;;12.07;10.07;;;20.80;1.00;;;;;;5041330;28;20464;-72
2023/08/28 09:33:44;;;;;;;3.40;1.97;;;20.80;1.00;;;;;;5044024;28;20548;-71
2023/08/28 09:36:16;;;;;;;4.50;2.20;;;20.70;1.00;;;;;;5038377;28;20464;-73
2023/08/28 09:38:44;;;;;;;1.90;1.40;;;20.80;1.00;;;;;;5036750;28;20544;-70
2023/08/28 09:41:11;;;;;;;2.20;1.90;;;20.70;1.00;;;;;;5036848;28;20606;-70
2023/08/28 09:43:38;;;;;;;3.80;2.40;;;20.70;1.00;;;;;;5037270;28;20476;-68
2023/08/28 09:46:06;;;;;;;3.03;1.73;;;20.60;1.00;;;;;;5037335;28;20467;-71
2023/08/28 09:48:33;;;;;;;3.00;1.80;;;20.50;1.00;;;;;;5042532;28;20458;-68
2023/08/28 09:51:02;;;;;;;2.57;2.00;;;20.50;1.00;;;;;;5046409;28;20468;-74
2023/08/28 09:53:31;;;;;;;2.93;2.03;;;20.60;1.00;;;;;;5043161;28;20591;-68
2023/08/28 09:55:58;;;;;;;2.87;1.90;;;20.60;1.00;;;;;;5040375;28;20482;-69
2023/08/28 09:58:26;;;;;;;4.73;2.70;;;20.70;1.00;;;;;;5039933;28;20460;-67
2023/08/28 10:00:56;;;;;;;2.17;1.63;;;20.70;1.00;;;;;;5038354;28;20923;-69
2023/08/28 10:03:24;;;;;;;4.20;1.60;;;20.90;1.00;;;;;;5039390;28;20556;-70
2023/08/28 10:05:52;;;;;;;1.90;1.80;;;20.80;1.00;;;;;;5032860;28;20503;-69
2023/08/28 10:08:19;;;;;;;3.10;2.10;;;20.80;1.00;;;;;;5036090;28;20552;-69
2023/08/28 10:10:49;;;;;;;2.87;1.87;;;20.80;1.00;;;;;;5041947;28;20501;-71
2023/08/28 10:13:16;;;;;;;3.20;2.10;;;20.90;1.00;;;;;;5039239;28;20504;-71
2023/08/28 10:15:52;;;;;;;2.43;1.37;;;20.90;1.00;;;;;;5042750;28;21128;-69
2023/08/28 10:18:30;;;;;;;3.47;1.67;;;21.00;1.00;;;;;;5042449;28;20454;-69
2023/08/28 10:20:58;;;;;;;1.73;1.27;;;21.20;1.00;;;;;;5043051;28;20544;-69
2023/08/28 10:23:26;;;;;;;2.53;1.53;;;21.20;1.00;;;;;;5039802;28;20464;-71
2023/08/28 10:25:56;;;;;;;2.70;1.73;;;21.30;1.00;;;;;;5037593;28;20511;-70
2023/08/28 10:28:26;;;;;;;3.10;1.53;;;21.40;1.00;;;;;;5034892;28;20511;-69
2023/08/28 10:30:54;;;;;;;2.27;1.30;;;21.50;1.00;;;;;;5032200;28;20543;-71
2023/08/28 10:33:22;;;;;;;2.43;1.60;;;21.40;1.00;;;;;;5035860;28;20457;-72
2023/08/28 10:35:51;;;;;;;1.93;1.57;;;21.60;1.00;;;;;;5035925;28;20489;-71
2023/08/28 10:38:19;;;;;;;7.43;1.90;;;21.80;1.00;;;;;;5036186;28;20459;-73
2023/08/28 10:40:47;;;;;;;2.30;1.63;;;22.10;1.00;;;;;;5040234;28;20459;-72
2023/08/28 10:43:16;;;;;;;3.27;1.60;;;22.80;1.00;;;;;;5039197;28;20595;-74
2023/08/28 10:45:44;;;;;;;1.60;1.23;;;24.10;1.00;;;;;;5038352;28;20570;-71
2023/08/28 10:48:11;;;;;;;2.37;1.77;;;25.10;1.00;;;;;;5039717;28;20591;-71
2023/08/28 10:50:39;;;;;;;1.53;1.37;;;25.30;1.00;;;;;;5040982;28;20500;-70
2023/08/28 10:53:06;;;;;;;2.10;1.63;;;25.10;1.00;;;;;;5037664;28;20450;-70
2023/08/28 10:55:35;;;;;;;2.27;1.50;;;25.00;1.00;;;;;;5036842;28;20592;-69
2023/08/28 10:58:03;;;;;;;2.70;1.30;;;24.80;1.00;;;;;;5043841;28;20955;-71
2023/08/28 11:00:35;;;;;;;2.10;1.73;;;25.00;1.00;;;;;;5039742;28;20537;-72
2023/08/28 11:03:08;;;;;;;1.67;1.57;;;25.10;1.00;;;;;;5036883;28;20475;-69
2023/08/28 11:05:35;;;;;;;1.90;1.10;;;25.10;1.00;;;;;;5034887;28;20471;-71
2023/08/28 11:08:04;;;;;;;4.77;4.00;;;25.30;1.00;;;;;;5040609;28;20557;-70
2023/08/28 11:10:31;;;;;;;1.83;1.50;;;25.70;1.00;;;;;;5034008;28;22372;-70
2023/08/28 11:13:02;;;;;;;3.53;1.40;;;25.70;1.00;;;;;;5038910;28;20463;-70
2023/08/28 11:15:32;;;;;;;2.87;1.60;;;25.20;1.00;;;;;;5041073;28;20574;-68
2023/08/28 11:18:29;;;;;;;3.63;1.83;;;25.10;1.00;;;;;;5040561;28;20458;-70
2023/08/28 11:20:58;;;;;;;3.70;2.53;;;24.90;1.00;;;;;;5036798;28;20511;-69
2023/08/28 11:23:33;;;;;;;2.23;1.03;;;24.80;1.00;;;;;;5042508;28;20434;-70
2023/08/28 11:26:02;;;;;;;2.70;2.50;;;24.60;1.00;;;;;;5041347;28;20573;-70
2023/08/28 11:28:32;;;;;;;3.90;1.80;;;24.30;1.00;;;;;;5041498;28;21024;-70
2023/08/28 11:31:05;;;;;;;2.60;1.50;;;23.90;1.00;;;;;;5037091;28;20527;-69
2023/08/28 11:33:37;;;;;;;2.50;1.97;;;23.60;1.00;;;;;;5040959;28;21041;-70
2023/08/28 11:36:04;;;;;;;3.70;1.87;;;23.30;1.00;;;;;;5042350;28;20995;-69
2023/08/28 11:38:31;;;;;;;3.60;1.90;;;23.30;1.00;;;;;;5041004;28;20561;-69
2023/08/28 11:41:04;;;;;;;3.93;0.87;;;23.60;1.00;;;;;;5039632;28;20460;-71
2023/08/28 11:43:34;;;;;;;3.43;1.23;;;23.50;1.00;;;;;;5043098;28;21703;-69
2023/08/28 11:46:03;;;;;;;6.60;2.80;;;23.20;1.00;;;;;;5045366;28;20528;-68
2023/08/28 11:48:34;;;;;;;2.33;2.10;;;23.20;1.00;;;;;;5038301;28;20913;-70
2023/08/28 11:51:01;;;;;;;2.63;1.47;;;23.10;1.00;;;;;;5042982;28;20480;-69
2023/08/28 11:53:32;;;;;;;1.67;1.10;;;23.40;1.00;;;;;;5038555;28;20461;-70
2023/08/28 11:56:01;;;;;;;2.23;1.83;;;23.70;1.00;;;;;;5035826;28;20482;-71
2023/08/28 11:58:28;;;;;;;3.30;1.57;;;23.70;1.00;;;;;;5040529;28;20464;-69
2023/08/28 12:00:55;;;;;;;3.73;1.97;;;23.40;1.00;;;;;;5037486;28;20458;-69
2023/08/28 12:03:23;;;;;;;4.57;1.77;;;23.30;1.00;;;;;;5036170;28;20615;-70
2023/08/28 12:05:50;;;;;;;3.17;1.67;;;23.20;1.00;;;;;;5042411;28;20577;-69
2023/08/28 12:08:18;;;;;;;2.00;1.77;;;23.60;1.00;;;;;;5042444;28;20488;-70
2023/08/28 12:10:56;;;;;;;2.20;1.57;;;23.90;1.00;;;;;;5051041;28;21226;-68
2023/08/28 12:13:23;;;;;;;3.10;1.30;;;23.90;1.00;;;;;;5045716;28;20463;-70
2023/08/28 12:15:50;;;;;;;1.70;1.23;;;23.90;1.00;;;;;;5044686;28;20484;-71
2023/08/28 12:18:17;;;;;;;2.13;1.63;;;23.90;1.00;;;;;;5044343;28;20461;-70
2023/08/28 12:20:45;;;;;;;1.60;1.50;;;24.00;1.00;;;;;;5045123;28;20457;-72
2023/08/28 12:23:13;;;;;;;3.00;1.80;;;23.80;1.00;;;;;;5035596;28;20464;-72
2023/08/28 12:25:58;;;;;;;2.83;1.47;;;23.70;1.00;;;;;;5034959;28;20599;-71
2023/08/28 12:28:28;;;;;;;2.23;1.40;;;23.70;1.00;;;;;;5051309;28;21980;-68
2023/08/28 12:31:08;;;;;;;3.30;2.00;;;23.70;1.00;;;;;;5048423;28;20472;-69
2023/08/28 12:33:42;;;;;;;4.13;1.90;;;23.50;1.00;;;;;;5042202;28;20500;-70
2023/08/28 12:36:19;;;;;;;3.20;1.83;;;23.30;1.00;;;;;;5047255;28;20500;-73
2023/08/28 12:38:47;;;;;;;1.73;1.63;;;23.30;1.00;;;;;;5043049;28;20521;-75
2023/08/28 12:41:15;;;;;;;1.87;1.67;;;23.40;1.00;;;;;;5043670;28;20454;-71
2023/08/28 12:43:41;;;;;;;4.43;1.83;;;23.50;1.00;;;;;;5039157;28;20865;-70
2023/08/28 12:46:09;;;;;;;2.40;1.40;;;23.50;1.00;;;;;;5041984;28;20472;-71
2023/08/28 12:48:46;;;;;;;1.53;1.10;;;23.40;1.00;;;;;;5045463;28;20467;-70
2023/08/28 12:51:15;;;;;;;3.50;1.77;;;23.40;1.00;;;;;;5041367;28;20439;-70
2023/08/28 12:53:42;;;;;;;2.00;1.60;;;23.30;1.00;;;;;;5047508;28;20512;-70
2023/08/28 12:56:09;;;;;;;2.90;1.57;;;23.30;1.00;;;;;;5042808;28;20554;-71
2023/08/28 12:58:38;;;;;;;2.50;1.73;;;23.30;1.00;;;;;;5037422;28;20462;-71
2023/08/28 13:01:07;;;;;;;3.20;2.17;;;23.20;1.00;;;;;;5040962;28;20566;-70
2023/08/28 13:03:38;;;;;;;6.10;2.33;;;23.00;1.00;;;;;;5058918;28;20413;-72